KUNV/SCE METAR and TAF weather

Enter ICAO airport designator
Station Type Date Time Source
KUNV METAR 2021/01/20 22:53 UTC NOAA

KUNV 202253Z 28008KT 10SM CLR M05/M12 A3005


Station Type Date Time Source
KUNV Decoded METAR 2021/01/20 22:53 UTC NOAA

State College, University Park Airport, PA, United States (KUNV) 40-51N 077-51W
Jan 20, 2021 - 05:53 PM EST / 2021.01.20 2253 UTC
Wind: from the W (280 degrees) at 9 MPH (8 KT):0
Visibility: 10 mile(s):0
Sky conditions: clear
Temperature: 23 F (-5 C)
Windchill: 14 F (-10 C):1
Dew Point: 10 F (-12 C)
Relative Humidity: 57%
Pressure (altimeter): 30.05 in. Hg (1017 hPa)
ob: KUNV 202253Z 28008KT 10SM CLR M05/M12 A3005
cycle: 23

Station Type Date Time Source
KUNV TAF 2021/01/20 22:58 UTC NOAA

TAF
AMD KUNV 202158Z 2022/2118 29010KT P6SM SCT045
FM210000 28007KT P6SM SCT035 BKN100
FM210700 23008KT P6SM OVC100
FM211300 24012KT P6SM OVC050

Example: see airport list